Time;durP1;ratioP1;P1;durP2;ratioP2;P2;SDS_P1;SDS_P2;PMS_P1;PMS_P2;Temp;Humidity;BMP_temperature;BMP_pressure;BME280_temperature;BME280_humidity;BME280_pressure;Samples;Min_cycle;Max_cycle;Signal;HPM_P1;HPM_P2
2022/10/29 00:01:01;;;;;;;8.25;4.95;;;;;;;14.88;89.24;101911.94;5034181;28;20056;-73
2022/10/29 00:03:29;;;;;;;8.48;5.22;;;;;;;14.85;88.54;101906.97;5033785;28;20083;-72
2022/10/29 00:06:00;;;;;;;6.57;4.53;;;;;;;14.88;88.39;101906.41;5034724;28;20042;-72
2022/10/29 00:08:30;;;;;;;7.03;4.90;;;;;;;14.84;88.26;101910.81;5035081;28;20049;-72
2022/10/29 00:11:10;;;;;;;6.95;4.70;;;;;;;14.78;87.30;101907.22;5034634;28;20053;-73
2022/10/29 00:13:38;;;;;;;8.38;4.45;;;;;;;14.76;87.81;101908.63;5035407;28;20050;-72
2022/10/29 00:16:08;;;;;;;8.63;4.93;;;;;;;14.81;87.81;101913.31;5035099;28;20037;-72
2022/10/29 00:18:36;;;;;;;9.70;4.40;;;;;;;14.79;88.01;101908.06;5035282;28;20041;-72
2022/10/29 00:21:07;;;;;;;7.40;5.25;;;;;;;14.77;88.05;101913.84;5042989;28;20068;-72
2022/10/29 00:23:34;;;;;;;6.72;4.28;;;;;;;14.77;87.87;101916.59;5029562;28;20056;-72
2022/10/29 00:26:03;;;;;;;12.40;5.53;;;;;;;14.82;87.57;101909.44;5025470;28;20041;-72
2022/10/29 00:28:31;;;;;;;8.43;4.90;;;;;;;14.82;87.79;101912.19;5034919;28;20052;-72
2022/10/29 00:31:03;;;;;;;7.75;4.70;;;;;;;14.82;87.44;101903.94;5034732;28;20096;-72
2022/10/29 00:33:31;;;;;;;7.88;4.70;;;;;;;14.80;87.87;101903.41;5034501;28;20041;-72
2022/10/29 00:36:01;;;;;;;11.55;4.35;;;;;;;14.77;88.16;101915.78;5034856;28;20048;-72
2022/10/29 00:38:31;;;;;;;7.40;4.60;;;;;;;14.80;87.43;101906.16;5034025;28;20404;-72
2022/10/29 00:41:00;;;;;;;8.77;4.80;;;;;;;14.78;87.41;101906.41;5034215;28;20049;-73
2022/10/29 00:43:28;;;;;;;10.90;4.90;;;;;;;14.73;87.75;101898.13;5034069;28;20057;-72
2022/10/29 00:46:05;;;;;;;8.95;4.65;;;;;;;14.69;87.88;101892.34;5034869;28;20041;-73
2022/10/29 00:48:38;;;;;;;7.93;5.05;;;;;;;14.66;88.05;101892.88;5025034;28;20051;-72
2022/10/29 00:51:09;;;;;;;7.72;5.00;;;;;;;14.68;88.32;101878.81;5021869;28;20052;-72
2022/10/29 00:53:42;;;;;;;9.75;4.70;;;;;;;14.64;88.69;101878.56;5034431;28;20053;-72
2022/10/29 00:56:11;;;;;;;8.43;4.18;;;;;;;14.61;88.99;101874.44;5034715;28;20037;-72
2022/10/29 00:58:39;;;;;;;5.43;4.13;;;;;;;14.63;88.92;101874.97;5034118;28;20046;-72
2022/10/29 01:01:07;;;;;;;10.60;4.55;;;;;;;14.73;88.41;101882.44;5034027;28;20400;-72
2022/10/29 01:03:35;;;;;;;10.82;4.78;;;;;;;14.72;88.54;101880.75;5032912;28;20511;-72
2022/10/29 01:06:04;;;;;;;6.18;4.00;;;;;;;14.75;87.67;101880.25;5034255;28;20042;-73
2022/10/29 01:08:32;;;;;;;7.78;5.03;;;;;;;14.75;88.03;101877.47;5039111;28;20441;-73
2022/10/29 01:11:25;;;;;;;5.40;4.03;;;;;;;14.78;87.69;101874.16;5039215;28;20057;-73
2022/10/29 01:14:18;;;;;;;8.25;4.85;;;;;;;14.77;87.65;101872.50;5040090;28;20484;-73
2022/10/29 01:17:24;;;;;;;5.85;4.38;;;;;;;14.80;87.99;101882.16;5033355;28;20046;-73
2022/10/29 01:20:17;;;;;;;6.03;4.13;;;;;;;14.66;87.82;101881.84;5037117;28;20053;-73
2022/10/29 01:23:32;;;;;;;4.78;4.00;;;;;;;14.63;88.47;101887.94;5033351;28;20353;-72
2022/10/29 01:26:32;;;;;;;10.18;4.38;;;;;;;14.61;87.84;101885.44;5032827;28;20076;-73
2022/10/29 01:29:05;;;;;;;10.07;4.90;;;;;;;14.62;87.66;101884.34;5033085;28;20046;-72
2022/10/29 01:31:39;;;;;;;6.85;4.43;;;;;;;14.59;87.93;101881.31;5032937;28;20052;-73
2022/10/29 01:34:30;;;;;;;6.55;4.63;;;;;;;14.51;87.71;101878.00;5033937;28;20056;-73
2022/10/29 01:37:04;;;;;;;8.88;4.35;;;;;;;14.54;88.40;101884.91;5023412;28;20046;-73
2022/10/29 01:39:32;;;;;;;6.50;4.55;;;;;;;14.56;88.26;101885.44;5032927;28;20046;-73
2022/10/29 01:42:16;;;;;;;7.68;4.68;;;;;;;14.53;88.42;101886.00;5033525;28;20045;-73
2022/10/29 01:44:55;;;;;;;9.32;4.57;;;;;;;14.52;88.46;101868.63;5033004;28;20497;-72
2022/10/29 01:47:27;;;;;;;8.07;4.43;;;;;;;14.55;88.07;101874.69;5038882;28;20409;-72
2022/10/29 01:50:02;;;;;;;5.75;4.15;;;;;;;14.55;88.15;101867.25;5033795;28;20048;-72
2022/10/29 01:52:31;;;;;;;;;;;;;;;14.62;87.81;101867.00;5034165;28;20049;-73
2022/10/29 01:55:00;;;;;;;7.45;4.38;;;;;;;14.58;87.66;101863.13;5036677;28;19921;-72
2022/10/29 01:57:32;;;;;;;11.00;4.50;;;;;;;14.51;87.59;101853.22;5034496;28;20057;-73
2022/10/29 02:00:10;;;;;;;6.18;3.90;;;;;;;14.46;88.13;101849.63;5032822;28;20057;-73
2022/10/29 02:03:12;;;;;;;7.38;4.70;;;;;;;14.46;88.00;101858.72;5032614;28;20037;-73
2022/10/29 02:05:55;;;;;;;7.82;4.53;;;;;;;14.47;87.39;101857.63;5012092;28;20046;-73
2022/10/29 02:08:38;;;;;;;11.90;5.05;;;;;;;14.42;87.85;101860.38;5013643;28;20050;-73
2022/10/29 02:11:24;;;;;;;14.68;4.70;;;;;;;14.35;88.45;101857.06;5012683;28;20045;-73
2022/10/29 02:13:59;;;;;;;13.65;4.80;;;;;;;14.32;87.58;101854.88;5012768;28;20042;-73
2022/10/29 02:16:28;;;;;;;8.25;4.63;;;;;;;14.27;87.55;101849.34;5012540;28;20125;-73
2022/10/29 02:18:57;;;;;;;12.90;4.40;;;;;;;14.26;87.62;101850.47;5012992;28;20073;-73
2022/10/29 02:21:25;;;;;;;12.80;5.07;;;;;;;14.29;87.07;101842.47;5012180;28;20401;-73
2022/10/29 02:23:53;;;;;;;10.93;5.07;;;;;;;14.22;87.47;101839.97;5018417;28;20056;-72
2022/10/29 02:26:21;;;;;;;8.70;4.45;;;;;;;14.17;87.51;101833.66;5015165;28;20046;-73
2022/10/29 02:28:49;;;;;;;9.48;4.60;;;;;;;14.16;87.84;101835.56;5013223;28;20057;-73
2022/10/29 02:31:17;;;;;;;13.48;5.40;;;;;;;14.24;87.17;101837.78;4995160;28;20050;-73
2022/10/29 02:33:44;;;;;;;8.90;5.15;;;;;;;14.32;86.84;101850.16;5012259;28;20420;-73
2022/10/29 02:36:12;;;;;;;7.35;4.28;;;;;;;14.31;87.17;101842.19;5012379;28;20057;-73
2022/10/29 02:38:40;;;;;;;8.32;4.68;;;;;;;14.33;87.23;101829.78;5012813;28;20050;-73
2022/10/29 02:41:08;;;;;;;7.25;4.68;;;;;;;14.29;87.25;101820.44;5020966;28;20136;-73
2022/10/29 02:43:36;;;;;;;6.97;4.65;;;;;;;14.24;87.79;101820.44;5028505;28;20053;-73
2022/10/29 02:46:17;;;;;;;7.45;4.18;;;;;;;14.22;87.86;101820.72;5019376;28;20506;-73
2022/10/29 02:48:46;;;;;;;7.85;4.35;;;;;;;14.28;88.34;101820.72;5022879;28;20052;-73
2022/10/29 02:51:16;;;;;;;6.82;4.18;;;;;;;14.35;88.17;101821.25;5012914;28;20046;-72
2022/10/29 02:53:44;;;;;;;11.18;4.72;;;;;;;14.37;88.03;101824.56;5012157;28;20049;-72
2022/10/29 02:56:11;;;;;;;9.55;4.57;;;;;;;14.29;88.12;101823.19;5017473;28;20053;-72
2022/10/29 02:58:39;;;;;;;7.47;3.83;;;;;;;14.29;87.73;101820.44;5023260;28;20045;-72
2022/10/29 03:01:07;;;;;;;6.95;3.85;;;;;;;14.24;88.85;101817.69;5012837;28;20034;-72
2022/10/29 03:03:35;;;;;;;9.82;5.38;;;;;;;14.19;88.77;101818.53;5015208;28;20060;-72
2022/10/29 03:06:03;;;;;;;8.32;4.90;;;;;;;14.16;88.56;101812.72;5033233;28;20041;-72
2022/10/29 03:08:31;;;;;;;8.50;4.43;;;;;;;14.06;88.96;101813.53;5041338;28;20056;-72
2022/10/29 03:10:59;;;;;;;10.95;4.55;;;;;;;14.11;89.09;101821.78;5031416;28;20437;-72
2022/10/29 03:13:27;;;;;;;9.10;4.38;;;;;;;14.10;89.31;101815.47;5031643;28;20080;-72
2022/10/29 03:15:55;;;;;;;8.60;4.70;;;;;;;14.03;89.35;101808.59;5031468;28;20057;-72
2022/10/29 03:18:22;;;;;;;8.35;4.47;;;;;;;13.96;89.12;101808.84;5031422;28;20057;-72
2022/10/29 03:20:50;;;;;;;11.02;4.40;;;;;;;13.93;89.09;101804.72;5032064;28;20051;-72
2022/10/29 03:23:18;;;;;;;6.80;4.47;;;;;;;13.91;89.84;101806.06;5018135;28;20045;-72
2022/10/29 03:25:53;;;;;;;7.43;4.70;;;;;;;13.89;89.64;101802.78;5031214;28;20417;-72
2022/10/29 03:28:24;;;;;;;8.82;4.70;;;;;;;13.86;89.82;101817.06;5033949;28;20413;-72
2022/10/29 03:30:53;;;;;;;7.10;4.72;;;;;;;13.89;89.43;101817.34;5031710;28;20129;-73
2022/10/29 03:33:24;;;;;;;9.30;4.97;;;;;;;13.83;88.81;101815.69;5012834;28;20046;-72
2022/10/29 03:36:00;;;;;;;10.13;5.28;;;;;;;13.77;88.69;101812.13;5031593;28;20072;-73
2022/10/29 03:38:28;;;;;;;7.43;4.60;;;;;;;13.80;88.57;101819.00;5029635;28;20056;-72
2022/10/29 03:40:56;;;;;;;5.45;4.18;;;;;;;13.68;88.84;101814.56;5031242;28;20053;-73
2022/10/29 03:43:24;;;;;;;10.30;4.50;;;;;;;13.67;88.40;101814.81;5044852;28;20484;-72
2022/10/29 03:45:53;;;;;;;9.88;5.13;;;;;;;13.62;88.80;101806.56;5028766;28;20072;-73
2022/10/29 03:48:23;;;;;;;9.45;4.85;;;;;;;13.59;89.07;101807.91;4997598;28;20113;-72
2022/10/29 03:50:59;;;;;;;9.25;4.97;;;;;;;13.59;88.92;101820.88;5039729;28;20053;-73
2022/10/29 03:53:27;;;;;;;11.05;5.20;;;;;;;13.57;89.07;101812.88;5031172;28;20719;-73
2022/10/29 03:55:56;;;;;;;11.32;4.88;;;;;;;13.54;89.33;101813.44;5030985;28;20050;-72
2022/10/29 03:58:24;;;;;;;11.13;5.60;;;;;;;13.50;89.72;101813.13;5030879;28;20056;-72
2022/10/29 04:00:56;;;;;;;14.13;4.97;;;;;;;13.48;90.17;101815.31;5031356;28;20711;-73
2022/10/29 04:03:27;;;;;;;7.47;4.50;;;;;;;13.46;91.15;101808.41;5036136;28;20548;-72
2022/10/29 04:05:56;;;;;;;13.15;5.38;;;;;;;13.51;90.79;101814.78;5030840;28;20056;-72
2022/10/29 04:08:24;;;;;;;10.73;5.25;;;;;;;13.44;90.60;101809.50;5031104;28;20054;-73
2022/10/29 04:10:52;;;;;;;9.13;5.43;;;;;;;13.47;90.73;101812.84;5030292;28;20493;-72
2022/10/29 04:13:20;;;;;;;8.77;5.07;;;;;;;13.55;90.59;101812.34;5030695;28;20052;-72
2022/10/29 04:15:53;;;;;;;10.02;5.10;;;;;;;13.52;90.55;101815.59;5030697;28;20056;-72
2022/10/29 04:18:22;;;;;;;10.35;5.25;;;;;;;13.51;91.21;101805.72;5030627;28;20057;-72
2022/10/29 04:20:50;;;;;;;7.72;5.40;;;;;;;13.60;90.89;101806.84;5030794;28;20049;-72
2022/10/29 04:23:38;;;;;;;13.38;5.57;;;;;;;13.56;91.73;101808.47;5022127;28;20037;-72
2022/10/29 04:26:26;;;;;;;14.45;5.97;;;;;;;13.60;91.45;101812.34;5030538;28;20050;-72
2022/10/29 04:29:14;;;;;;;10.25;5.03;;;;;;;13.66;90.77;101822.28;5036020;28;20052;-72
2022/10/29 04:31:41;;;;;;;10.88;5.18;;;;;;;13.62;90.49;101820.31;5030992;28;20040;-72
2022/10/29 04:34:09;;;;;;;9.77;4.72;;;;;;;13.62;90.87;101803.81;5030500;28;20053;-72
2022/10/29 04:36:37;;;;;;;9.45;4.82;;;;;;;13.51;90.95;101808.47;5029623;28;20061;-73
2022/10/29 04:39:05;;;;;;;11.57;5.05;;;;;;;13.46;90.68;101806.53;5031455;28;20061;-73
2022/10/29 04:41:33;;;;;;;10.75;5.50;;;;;;;13.50;91.06;101801.31;5013052;28;20068;-72
2022/10/29 04:44:02;;;;;;;9.00;4.55;;;;;;;13.47;91.57;101804.59;5030432;28;20052;-72
2022/10/29 04:46:30;;;;;;;7.78;4.10;;;;;;;13.51;91.62;101813.97;5029820;28;20060;-72
2022/10/29 04:48:58;;;;;;;7.70;4.72;;;;;;;13.55;91.09;101817.81;5032318;28;20052;-74
2022/10/29 04:51:26;;;;;;;6.45;4.43;;;;;;;13.59;91.17;101818.13;5033838;28;20057;-72
2022/10/29 04:53:54;;;;;;;7.60;4.30;;;;;;;13.62;89.81;101815.66;5032884;28;20408;-72
2022/10/29 04:56:22;;;;;;;10.32;4.93;;;;;;;13.57;89.99;101808.22;5037419;28;20052;-72
2022/10/29 04:58:51;;;;;;;6.53;4.75;;;;;;;13.52;90.16;101804.59;5033943;28;20049;-72
2022/10/29 05:01:19;;;;;;;12.27;4.30;;;;;;;13.46;90.82;101802.91;5032260;28;20057;-73
2022/10/29 05:03:47;;;;;;;11.02;5.13;;;;;;;13.48;90.58;101811.75;5034030;28;20608;-72
2022/10/29 05:06:15;;;;;;;9.63;4.85;;;;;;;13.47;90.59;101802.66;5036811;28;20049;-72
2022/10/29 05:08:43;;;;;;;8.05;4.47;;;;;;;13.48;90.43;101803.50;5033528;28;20057;-72
2022/10/29 05:11:10;;;;;;;9.18;5.13;;;;;;;13.46;90.75;101800.16;5032916;28;20052;-72
2022/10/29 05:13:38;;;;;;;7.45;4.85;;;;;;;13.40;91.33;101797.38;5033384;28;20053;-72
2022/10/29 05:16:06;;;;;;;7.25;4.28;;;;;;;13.44;90.94;101797.66;5033286;28;20061;-72
2022/10/29 05:18:36;;;;;;;7.95;4.70;;;;;;;13.41;91.17;101788.03;5036373;28;20045;-73
2022/10/29 05:21:04;;;;;;;8.50;4.85;;;;;;;13.52;90.96;101794.44;5039026;28;20038;-72
2022/10/29 05:23:32;;;;;;;12.10;5.78;;;;;;;13.59;90.36;101799.66;5033984;28;20050;-72
2022/10/29 05:26:00;;;;;;;6.45;4.55;;;;;;;13.55;90.83;101801.31;5033910;28;20053;-72
2022/10/29 05:28:28;;;;;;;11.43;5.80;;;;;;;13.59;90.29;101799.66;5034557;28;20439;-72
2022/10/29 05:30:59;;;;;;;9.48;4.95;;;;;;;13.46;91.71;101811.16;5039778;28;20050;-73
2022/10/29 05:33:27;;;;;;;13.95;5.13;;;;;;;13.48;89.77;101806.25;5032755;28;20048;-72
2022/10/29 05:35:55;;;;;;;11.35;5.25;;;;;;;13.48;88.80;101814.50;5043875;28;20056;-72
2022/10/29 05:38:23;;;;;;;11.35;5.40;;;;;;;13.31;89.71;101818.25;5032348;28;20041;-72
2022/10/29 05:40:50;;;;;;;9.45;5.10;;;;;;;13.17;89.46;101806.91;5038396;28;20484;-72
2022/10/29 05:43:19;;;;;;;8.52;5.35;;;;;;;13.23;89.74;101805.00;5044982;28;20505;-72
2022/10/29 05:45:47;;;;;;;11.10;5.60;;;;;;;13.20;90.09;101805.56;5033079;28;20052;-72
2022/10/29 05:48:14;;;;;;;11.00;5.90;;;;;;;13.12;90.03;101809.63;5032875;28;20046;-72
2022/10/29 05:50:42;;;;;;;9.27;5.13;;;;;;;13.16;90.62;101802.53;5033692;28;20041;-72
2022/10/29 05:53:13;;;;;;;9.32;5.43;;;;;;;13.14;91.10;101810.19;5032370;28;20049;-72
2022/10/29 05:55:41;;;;;;;10.90;5.45;;;;;;;13.22;90.34;101812.44;5031178;28;20041;-72
2022/10/29 05:58:11;;;;;;;8.18;5.07;;;;;;;13.19;90.73;101814.91;5031452;28;20060;-72
2022/10/29 06:00:41;;;;;;;12.10;5.32;;;;;;;13.24;90.42;101814.94;5032330;28;20489;-72
2022/10/29 06:03:15;;;;;;;9.30;5.22;;;;;;;13.41;89.35;101814.72;5028545;28;20038;-74
2022/10/29 06:05:44;;;;;;;8.17;5.73;;;;;;;13.40;89.38;101829.56;5032804;28;20053;-75
2022/10/29 06:08:13;;;;;;;8.10;5.47;;;;;;;13.43;88.75;101824.34;5040861;28;20310;-75
2022/10/29 06:10:40;;;;;;;10.98;4.55;;;;;;;13.35;88.92;101827.59;5033367;28;20521;-74
2022/10/29 06:13:12;;;;;;;10.07;4.55;;;;;;;13.41;88.47;101821.03;5032563;28;20389;-75
2022/10/29 06:15:40;;;;;;;11.85;5.30;;;;;;;13.38;88.96;101821.56;5034526;28;20052;-74
2022/10/29 06:18:08;;;;;;;9.95;5.32;;;;;;;13.41;89.10;101812.78;5034008;28;20397;-75
2022/10/29 06:20:37;;;;;;;11.80;6.03;;;;;;;13.43;88.23;101810.59;5014703;28;20053;-73
2022/10/29 06:23:06;;;;;;;9.15;5.78;;;;;;;13.44;88.28;101815.00;5038806;28;20044;-75
2022/10/29 06:25:33;;;;;;;7.25;5.15;;;;;;;13.52;87.99;101816.44;5032182;28;20057;-75
2022/10/29 06:28:05;;;;;;;6.25;3.92;;;;;;;13.61;88.06;101815.91;5031083;28;20053;-76
2022/10/29 06:30:35;;;;;;;8.43;5.10;;;;;;;13.67;87.66;101818.41;5032173;28;20057;-74
2022/10/29 06:33:04;;;;;;;8.68;5.28;;;;;;;13.74;87.77;101828.34;5034225;28;20406;-74
2022/10/29 06:35:33;;;;;;;6.03;4.80;;;;;;;14.24;86.04;101834.22;4996954;28;20405;-74
2022/10/29 06:38:10;;;;;;;5.95;3.92;;;;;;;14.68;84.04;101829.22;4981974;28;20041;-74
2022/10/29 06:40:41;;;;;;;9.38;4.43;;;;;;;14.82;83.32;101824.03;4996061;28;20060;-73
2022/10/29 06:43:10;;;;;;;8.32;5.10;;;;;;;15.05;82.81;101837.19;5030303;28;20042;-74
2022/10/29 06:45:38;;;;;;;11.32;5.50;;;;;;;15.16;82.17;101834.41;5010969;28;20045;-74
2022/10/29 06:48:06;;;;;;;11.48;5.55;;;;;;;15.37;80.88;101828.81;5030364;28;20045;-74
2022/10/29 06:50:34;;;;;;;9.73;5.13;;;;;;;15.47;79.94;101830.69;5031106;28;20053;-74
2022/10/29 06:53:08;;;;;;;12.25;5.70;;;;;;;15.61;80.59;101834.50;5031288;28;20045;-74
2022/10/29 06:55:37;;;;;;;8.65;5.35;;;;;;;15.50;80.41;101833.72;5030415;28;20053;-74
2022/10/29 06:58:11;;;;;;;10.10;5.07;;;;;;;15.81;79.28;101836.34;5030431;28;20042;-74
2022/10/29 07:00:40;;;;;;;10.50;5.43;;;;;;;15.76;80.11;101841.03;5030629;28;20186;-75
2022/10/29 07:03:13;;;;;;;13.75;5.53;;;;;;;15.99;79.32;101839.56;5030866;28;20041;-73
2022/10/29 07:05:41;;;;;;;9.23;5.88;;;;;;;16.13;78.53;101848.03;5027424;28;20398;-74
2022/10/29 07:08:10;;;;;;;14.95;5.50;;;;;;;16.26;77.74;101846.56;5027049;28;20037;-76
2022/10/29 07:10:38;;;;;;;14.38;5.35;;;;;;;16.36;77.50;101849.25;5035632;28;20060;-76
2022/10/29 07:13:06;;;;;;;8.13;4.72;;;;;;;16.44;76.57;101846.97;5031536;28;20052;-75
2022/10/29 07:15:34;;;;;;;10.63;5.88;;;;;;;16.61;75.69;101849.31;5033242;28;20049;-75
2022/10/29 07:18:05;;;;;;;8.70;4.85;;;;;;;16.74;75.42;101842.28;5030798;28;20045;-75
2022/10/29 07:20:36;;;;;;;8.43;4.78;;;;;;;16.96;74.71;101840.97;5038377;28;20044;-75
2022/10/29 07:23:04;;;;;;;11.43;5.20;;;;;;;17.10;74.22;101841.94;5028291;28;20401;-75
2022/10/29 07:25:34;;;;;;;10.23;5.13;;;;;;;17.18;74.30;101846.00;5031674;28;20057;-75
2022/10/29 07:28:03;;;;;;;9.50;4.70;;;;;;;17.33;73.40;101845.00;5030906;28;20041;-75
2022/10/29 07:30:31;;;;;;;12.43;5.32;;;;;;;17.46;72.29;101846.25;5030511;28;20396;-75
2022/10/29 07:32:59;;;;;;;10.27;4.93;;;;;;;17.67;71.55;101851.50;5032576;28;20507;-75
2022/10/29 07:35:27;;;;;;;5.82;4.53;;;;;;;17.75;71.19;101853.63;5030690;28;20496;-74
2022/10/29 07:38:02;;;;;;;14.50;5.03;;;;;;;17.59;71.94;101864.06;5029927;28;20041;-74
2022/10/29 07:40:38;;;;;;;10.77;4.82;;;;;;;17.66;71.94;101870.06;5030697;28;20053;-74
2022/10/29 07:43:07;;;;;;;10.52;5.18;;;;;;;17.66;71.64;101867.31;5035248;28;20527;-74
2022/10/29 07:45:35;;;;;;;14.77;5.35;;;;;;;17.67;70.66;101868.94;5028793;28;20068;-74
2022/10/29 07:48:08;;;;;;;9.60;4.65;;;;;;;17.85;70.63;101870.06;5030898;28;20038;-74
2022/10/29 07:50:37;;;;;;;8.63;5.40;;;;;;;17.73;70.57;101870.53;5024901;28;20076;-74
2022/10/29 07:53:06;;;;;;;9.90;5.20;;;;;;;17.82;69.84;101867.06;5030257;28;20508;-74
2022/10/29 07:55:34;;;;;;;9.68;5.50;;;;;;;17.95;68.63;101876.59;5030344;28;20504;-74
2022/10/29 07:58:05;;;;;;;9.15;5.28;;;;;;;18.25;68.36;101877.28;5027379;28;20056;-74
2022/10/29 08:00:36;;;;;;;10.60;5.10;;;;;;;18.37;67.64;101872.13;5030494;28;20065;-74
2022/10/29 08:03:05;;;;;;;10.98;5.28;;;;;;;18.54;67.57;101871.56;5030319;28;20061;-74
2022/10/29 08:05:33;;;;;;;12.95;5.53;;;;;;;18.55;67.37;101877.94;4989648;28;20043;-74
2022/10/29 08:08:01;;;;;;;11.05;6.18;;;;;;;18.59;67.75;101878.97;5008810;28;20046;-75
2022/10/29 08:10:30;;;;;;;9.55;5.60;;;;;;;18.65;67.82;101875.00;5011753;28;20050;-74
2022/10/29 08:13:00;;;;;;;12.35;5.25;;;;;;;18.72;66.86;101877.34;5010075;28;20050;-74
2022/10/29 08:15:30;;;;;;;10.93;5.80;;;;;;;18.75;67.06;101875.91;5009765;28;20054;-74
2022/10/29 08:17:58;;;;;;;12.50;6.35;;;;;;;18.75;66.61;101873.97;5011156;28;20046;-74
2022/10/29 08:20:28;;;;;;;11.05;6.00;;;;;;;18.77;66.86;101871.72;5010288;28;20045;-76
2022/10/29 08:22:58;;;;;;;10.55;5.65;;;;;;;18.84;66.69;101871.34;4981276;28;20048;-76
2022/10/29 08:25:27;;;;;;;11.15;5.75;;;;;;;19.00;66.70;101871.88;4981596;28;20058;-76
2022/10/29 08:28:01;;;;;;;9.15;5.38;;;;;;;19.05;65.83;101868.19;4965724;28;20050;-76
2022/10/29 08:30:31;;;;;;;14.90;6.18;;;;;;;19.04;65.91;101856.28;4981758;28;20042;-76
2022/10/29 08:32:59;;;;;;;14.57;6.22;;;;;;;19.03;64.96;101874.06;4965870;28;20050;-76
2022/10/29 08:35:28;;;;;;;13.63;6.28;;;;;;;19.18;65.38;101869.34;5015306;28;20057;-76
2022/10/29 08:37:56;;;;;;;12.27;5.93;;;;;;;19.30;64.56;101866.03;5014980;28;20052;-76
2022/10/29 08:40:29;;;;;;;14.88;6.28;;;;;;;19.30;64.55;101875.22;4997726;28;20072;-76
2022/10/29 08:43:34;;;;;;;12.88;5.57;;;;;;;19.51;63.75;101871.19;5015006;28;20477;-76
2022/10/29 08:46:02;;;;;;;15.27;6.30;;;;;;;19.39;63.43;101871.69;5002328;28;20058;-76
2022/10/29 08:48:43;;;;;;;9.77;6.07;;;;;;;19.44;63.33;101875.22;5015221;28;20049;-76
2022/10/29 08:51:21;;;;;;;12.73;6.40;;;;;;;19.49;63.08;101876.25;5015025;28;20041;-76
2022/10/29 08:53:52;;;;;;;13.40;7.03;;;;;;;19.41;62.98;101875.81;4997204;28;20373;-76
2022/10/29 08:56:46;;;;;;;17.95;7.72;;;;;;;19.49;62.89;101876.25;5014864;28;20053;-76
2022/10/29 08:59:21;;;;;;;13.70;6.38;;;;;;;19.60;63.36;101867.38;4997074;28;20489;-76
2022/10/29 09:01:52;;;;;;;13.25;7.10;;;;;;;19.84;63.32;101868.28;5014866;28;20054;-76
2022/10/29 09:04:46;;;;;;;12.05;7.10;;;;;;;19.99;63.39;101864.34;5024257;28;20429;-76
2022/10/29 09:07:36;;;;;;;16.37;8.07;;;;;;;20.02;62.63;101863.72;5032118;28;20132;-76
2022/10/29 09:10:15;;;;;;;17.80;7.55;;;;;;;20.10;62.33;101864.94;5023666;28;20068;-76
2022/10/29 09:13:03;;;;;;;15.20;7.60;;;;;;;20.15;61.87;101870.38;5035297;28;20061;-76
2022/10/29 09:15:31;;;;;;;13.45;6.78;;;;;;;20.33;61.16;101873.28;5023458;28;20038;-76
2022/10/29 09:18:18;;;;;;;14.57;7.35;;;;;;;20.24;61.85;101871.25;5036132;28;20448;-76
2022/10/29 09:20:55;;;;;;;13.52;7.45;;;;;;;20.34;61.06;101864.63;5033435;28;20045;-76
2022/10/29 09:23:55;;;;;;;14.63;7.63;;;;;;;20.44;61.13;101860.78;5033003;28;20400;-76
2022/10/29 09:26:32;;;;;;;14.38;7.60;;;;;;;20.45;60.22;101853.25;4998846;28;20050;-76
2022/10/29 09:29:25;;;;;;;14.18;7.22;;;;;;;20.55;60.23;101858.56;5033365;28;20049;-77
2022/10/29 09:31:59;;;;;;;12.70;7.72;;;;;;;20.55;59.91;101858.56;5022836;28;20041;-76
2022/10/29 09:34:38;;;;;;;16.33;8.70;;;;;;;20.69;58.63;101858.47;5038520;28;20392;-76
2022/10/29 09:37:22;;;;;;;15.10;7.90;;;;;;;20.68;59.22;101856.84;5033679;28;20048;-76
2022/10/29 09:39:53;;;;;;;15.23;7.05;;;;;;;20.73;58.99;101853.09;5040317;28;20048;-77
2022/10/29 09:42:37;;;;;;;19.25;8.25;;;;;;;20.82;59.49;101856.72;5034402;28;20048;-76
2022/10/29 09:45:08;;;;;;;14.13;8.23;;;;;;;20.91;59.42;101860.41;5036838;28;20477;-77
2022/10/29 09:47:51;;;;;;;16.73;8.38;;;;;;;21.04;58.65;101857.84;5033731;28;20057;-76
2022/10/29 09:50:27;;;;;;;17.98;8.27;;;;;;;21.15;58.25;101858.38;5033525;28;20076;-76
2022/10/29 09:52:55;;;;;;;13.15;7.28;;;;;;;21.13;57.52;101863.47;5033564;28;20378;-77
2022/10/29 09:55:26;;;;;;;14.55;8.07;;;;;;;21.36;57.36;101858.63;5032789;28;20042;-77
2022/10/29 09:57:56;;;;;;;14.68;8.02;;;;;;;21.44;56.46;101855.06;5033396;28;20033;-77
2022/10/29 10:00:27;;;;;;;18.02;7.90;;;;;;;21.48;56.83;101858.84;5033307;28;20045;-77
2022/10/29 10:03:04;;;;;;;17.02;8.43;;;;;;;21.53;56.00;101852.28;5002157;28;20038;-76
2022/10/29 10:05:34;;;;;;;19.75;8.23;;;;;;;21.66;56.05;101844.13;5032988;28;20050;-76
2022/10/29 10:08:11;;;;;;;15.50;8.55;;;;;;;21.76;55.82;101843.84;5035553;28;20624;-76
2022/10/29 10:10:53;;;;;;;15.95;8.13;;;;;;;21.82;55.69;101841.69;5031764;28;20045;-77
2022/10/29 10:13:30;;;;;;;17.80;9.15;;;;;;;21.84;55.33;101833.81;5030935;28;20497;-76
2022/10/29 10:16:01;;;;;;;19.90;9.85;;;;;;;21.91;55.61;101836.97;5033279;28;20048;-77
2022/10/29 10:18:32;;;;;;;24.23;12.35;;;;;;;22.07;56.26;101830.88;5029288;28;20053;-76
2022/10/29 10:21:22;;;;;;;21.33;11.40;;;;;;;22.07;55.50;101828.09;5031346;28;20049;-76
2022/10/29 10:23:56;;;;;;;19.63;10.82;;;;;;;22.12;55.79;101834.34;5033287;28;20056;-76
2022/10/29 10:26:42;;;;;;;24.00;11.25;;;;;;;22.06;55.78;101832.03;5031483;28;20048;-76
2022/10/29 10:29:13;;;;;;;22.15;10.73;;;;;;;22.10;56.50;101821.88;5033799;28;20503;-76
2022/10/29 10:31:44;;;;;;;24.15;11.57;;;;;;;22.22;55.32;101824.81;5032509;28;20060;-76
2022/10/29 10:34:20;;;;;;;25.98;11.40;;;;;;;22.24;55.21;101808.56;5013082;28;20041;-76
2022/10/29 10:36:54;;;;;;;25.23;12.70;;;;;;;22.40;54.96;101827.56;5031071;28;20045;-76
2022/10/29 10:39:28;;;;;;;25.17;11.15;;;;;;;22.47;54.67;101813.94;5030959;28;20042;-76
2022/10/29 10:41:59;;;;;;;17.38;11.00;;;;;;;22.54;54.42;101816.25;5031638;28;20503;-77
2022/10/29 10:44:28;;;;;;;26.67;12.00;;;;;;;22.55;54.06;101806.72;5012550;28;20064;-77
2022/10/29 10:47:03;;;;;;;23.50;10.85;;;;;;;22.58;52.89;101805.25;5032483;28;20042;-76
2022/10/29 10:49:37;;;;;;;15.75;9.63;;;;;;;22.77;52.61;101797.28;5031589;28;20488;-77
2022/10/29 10:52:29;;;;;;;19.38;10.07;;;;;;;22.81;53.36;101803.03;5030760;28;20046;-77
2022/10/29 10:55:00;;;;;;;19.33;9.82;;;;;;;22.81;53.04;101798.28;5030947;28;20400;-77
2022/10/29 10:57:48;;;;;;;22.33;10.57;;;;;;;22.94;53.50;101801.16;5014299;28;20053;-77
2022/10/29 11:00:20;;;;;;;20.20;11.05;;;;;;;22.88;53.43;101802.50;5039229;28;20408;-77
2022/10/29 11:02:55;;;;;;;17.02;9.35;;;;;;;22.93;52.93;101788.38;5010620;28;20045;-77
2022/10/29 11:06:07;;;;;;;22.77;11.60;;;;;;;23.16;52.62;101796.47;5034490;28;20049;-77
2022/10/29 11:08:44;;;;;;;26.10;11.48;;;;;;;23.19;51.21;101779.03;4977452;28;20068;-76
2022/10/29 11:11:22;;;;;;;18.23;10.10;;;;;;;23.25;51.65;101782.47;5033101;28;20037;-76
2022/10/29 11:13:50;;;;;;;20.10;10.27;;;;;;;23.40;52.50;101784.66;5013106;28;20496;-76
2022/10/29 11:16:38;;;;;;;21.42;11.10;;;;;;;23.56;51.16;101782.09;5030446;28;20053;-75
2022/10/29 11:19:15;;;;;;;21.48;11.13;;;;;;;23.57;51.38;101766.97;5029919;28;20056;-76
2022/10/29 11:22:21;;;;;;;24.77;10.95;;;;;;;23.56;51.22;101772.91;5028425;28;20167;-76
2022/10/29 11:24:52;;;;;;;23.33;10.45;;;;;;;23.56;50.72;101770.91;5026998;28;20042;-76
2022/10/29 11:27:29;;;;;;;20.42;10.38;;;;;;;23.76;50.67;101779.66;5026775;28;20048;-76
2022/10/29 11:30:10;;;;;;;19.40;10.63;;;;;;;23.77;50.66;101775.69;5028406;28;20045;-77
2022/10/29 11:32:56;;;;;;;22.73;10.98;;;;;;;23.76;50.44;101768.47;5011236;28;20045;-77
2022/10/29 11:35:53;;;;;;;19.15;10.73;;;;;;;23.65;50.86;101764.44;5028270;28;20041;-77
2022/10/29 11:38:37;;;;;;;20.10;10.52;;;;;;;23.67;50.22;101760.16;5034588;28;20619;-77
2022/10/29 11:41:43;;;;;;;18.25;9.32;;;;;;;23.79;49.96;101753.78;5030298;28;20041;-76
2022/10/29 11:44:13;;;;;;;17.08;9.00;;;;;;;23.96;49.03;101740.81;5006858;28;20469;-77
2022/10/29 11:46:53;;;;;;;24.50;9.70;;;;;;;24.05;49.34;101744.34;5031877;28;20041;-77